createdAt,value
2022-08-08T09:48:50.408Z,1.30
2022-08-08T09:51:18.931Z,1.40
2022-08-08T09:54:05.141Z,1.10
2022-08-08T09:56:41.448Z,1.13
2022-08-08T09:59:53.230Z,1.37
2022-08-08T10:02:12.658Z,1.30
2022-08-08T10:04:47.938Z,1.27
2022-08-08T10:07:18.124Z,1.40
2022-08-08T10:10:00.965Z,1.27
2022-08-08T10:12:38.853Z,1.50
2022-08-08T10:15:22.017Z,1.27
2022-08-08T10:18:05.335Z,1.53
2022-08-08T10:20:50.971Z,1.33
2022-08-08T10:23:42.261Z,1.30
2022-08-08T10:26:25.788Z,1.57
2022-08-08T10:29:06.122Z,1.13
2022-08-08T10:31:52.467Z,1.10
2022-08-08T10:34:23.968Z,1.43
2022-08-08T10:36:53.930Z,1.17
2022-08-08T10:39:23.414Z,1.63
2022-08-08T10:42:16.314Z,1.17
2022-08-08T10:44:49.236Z,0.83
2022-08-08T10:47:21.184Z,1.17
2022-08-08T10:50:00.636Z,1.00
2022-08-08T10:52:43.032Z,0.87
2022-08-08T10:55:14.030Z,0.97
2022-08-08T10:57:49.625Z,0.97
2022-08-08T11:00:22.323Z,1.33
2022-08-08T11:02:50.624Z,0.90
2022-08-08T11:05:18.880Z,1.23
2022-08-08T11:08:30.769Z,1.20
2022-08-08T11:10:42.631Z,0.87
2022-08-08T11:13:29.928Z,1.10
2022-08-08T11:16:01.510Z,1.10
2022-08-08T11:18:36.646Z,1.10
2022-08-08T11:21:10.032Z,1.23
2022-08-08T11:23:42.506Z,1.27
2022-08-08T11:26:19.385Z,1.30
2022-08-08T11:28:50.198Z,1.20
2022-08-08T11:31:19.014Z,1.07
2022-08-08T11:34:01.316Z,1.20
2022-08-08T11:36:36.391Z,1.10
2022-08-08T11:39:11.028Z,1.30
2022-08-08T11:41:42.226Z,1.70
2022-08-08T11:44:13.495Z,1.50
2022-08-08T11:46:42.630Z,0.90
2022-08-08T11:49:14.680Z,0.90
2022-08-08T11:51:50.433Z,1.30
2022-08-08T11:54:33.692Z,1.10
2022-08-08T11:57:27.376Z,1.47
2022-08-08T12:00:02.845Z,1.03
2022-08-08T12:02:41.825Z,1.03
2022-08-08T12:05:12.239Z,1.03
2022-08-08T12:07:51.217Z,1.47
2022-08-08T12:10:22.782Z,1.40
2022-08-08T12:13:01.338Z,1.50
2022-08-08T12:15:30.766Z,1.33
2022-08-08T12:18:20.906Z,1.67
2022-08-08T12:20:50.671Z,1.47
2022-08-08T12:23:42.614Z,1.57
2022-08-08T12:26:28.495Z,1.27
2022-08-08T12:29:10.343Z,1.53
2022-08-08T12:31:53.889Z,1.67
2022-08-08T12:34:43.864Z,1.70
2022-08-08T12:37:19.691Z,1.70
2022-08-08T12:40:00.180Z,1.50
2022-08-08T12:42:33.610Z,1.97
2022-08-08T12:45:54.747Z,1.97
2022-08-08T12:48:09.623Z,2.00
2022-08-08T12:50:47.100Z,1.63
2022-08-08T12:53:24.815Z,1.93
2022-08-08T12:56:19.672Z,1.93
2022-08-08T12:59:36.817Z,1.60
2022-08-08T13:02:28.685Z,2.00
2022-08-08T13:05:05.906Z,1.50
2022-08-08T13:08:04.018Z,1.53
2022-08-08T13:10:32.882Z,1.80
2022-08-08T13:13:05.642Z,1.60
2022-08-08T13:15:36.424Z,1.60
2022-08-08T13:18:11.638Z,1.53
2022-08-08T13:20:45.455Z,1.60
2022-08-08T13:23:36.723Z,1.50
2022-08-08T13:26:14.411Z,1.10
2022-08-08T13:28:45.889Z,1.50
2022-08-08T13:31:18.546Z,1.17
2022-08-08T13:33:50.145Z,1.40
2022-08-08T13:36:25.874Z,1.10
2022-08-08T13:38:54.893Z,1.33
2022-08-08T13:41:39.415Z,1.27
2022-08-08T13:44:13.632Z,1.17
2022-08-08T13:47:07.128Z,1.30
2022-08-08T13:50:35.386Z,1.23
2022-08-08T13:52:37.625Z,1.33
2022-08-08T13:55:07.637Z,1.40
2022-08-08T13:58:07.407Z,1.17
2022-08-08T14:00:25.492Z,0.93
2022-08-08T14:03:00.431Z,1.30
2022-08-08T14:05:29.456Z,1.20
2022-08-08T14:08:11.686Z,1.40
2022-08-08T14:10:45.362Z,1.50
2022-08-08T14:13:30.924Z,1.40
2022-08-08T14:16:17.076Z,1.20
2022-08-08T14:18:54.129Z,1.30
2022-08-08T14:21:23.324Z,0.90
2022-08-08T14:24:04.490Z,1.23
2022-08-08T14:26:42.453Z,1.23
2022-08-08T14:29:30.065Z,0.80
2022-08-08T14:32:17.084Z,1.10
2022-08-08T14:34:54.466Z,1.40
2022-08-08T14:37:28.018Z,1.10
2022-08-08T14:40:12.108Z,1.03
2022-08-08T14:42:54.939Z,1.30
2022-08-08T14:45:29.365Z,0.97
2022-08-08T14:48:02.961Z,0.83
2022-08-08T14:50:38.181Z,0.90
2022-08-08T14:53:16.562Z,1.20
2022-08-08T14:55:45.110Z,1.20
2022-08-08T14:58:16.822Z,1.20
2022-08-08T15:00:53.789Z,1.00
2022-08-08T15:03:22.777Z,1.20
2022-08-08T15:05:55.260Z,0.97
2022-08-08T15:08:34.433Z,0.90
2022-08-08T15:11:09.072Z,1.47
2022-08-08T15:13:40.857Z,1.10
2022-08-08T15:16:26.233Z,1.70
2022-08-08T15:18:56.268Z,1.07
2022-08-08T15:21:33.597Z,1.43
2022-08-08T15:24:12.662Z,1.00
2022-08-08T15:26:52.233Z,0.97
2022-08-08T15:29:22.707Z,0.90
2022-08-08T15:32:03.069Z,0.80
2022-08-08T15:34:41.666Z,0.90
2022-08-08T15:37:12.860Z,1.07
2022-08-08T15:39:43.097Z,1.00
2022-08-08T15:42:18.019Z,1.30
2022-08-08T15:44:59.745Z,1.03
2022-08-08T15:47:28.076Z,1.10
2022-08-08T15:50:02.935Z,1.10
2022-08-08T15:52:35.123Z,0.80
2022-08-08T15:55:03.477Z,0.90
2022-08-08T15:57:35.655Z,1.00
2022-08-08T16:00:25.919Z,1.27
2022-08-08T16:02:57.921Z,1.10
2022-08-08T16:05:35.783Z,0.90
2022-08-08T16:08:20.093Z,1.10
2022-08-08T16:13:04.465Z,1.10
2022-08-08T16:13:45.897Z,1.30
2022-08-08T16:16:17.493Z,1.27
2022-08-08T16:18:56.287Z,1.63
2022-08-08T16:21:27.899Z,1.20
2022-08-08T16:23:58.157Z,1.30
2022-08-08T16:26:34.720Z,1.30
2022-08-08T16:29:07.925Z,1.47
2022-08-08T16:31:37.964Z,1.83
2022-08-08T16:34:06.953Z,1.50
2022-08-08T16:36:41.217Z,1.47
2022-08-08T16:39:27.998Z,1.10
2022-08-08T16:42:01.785Z,1.40
2022-08-08T16:44:34.292Z,1.30
2022-08-08T16:47:22.007Z,1.70
2022-08-08T16:50:01.302Z,1.30
2022-08-08T16:55:04.703Z,1.30
2022-08-08T16:55:33.607Z,1.33
2022-08-08T16:58:13.930Z,1.33
2022-08-08T17:00:49.162Z,1.20
2022-08-08T17:03:24.989Z,1.30
2022-08-08T17:06:41.779Z,1.10
2022-08-08T17:08:57.983Z,1.10
2022-08-08T17:11:39.155Z,1.13
2022-08-08T17:14:18.695Z,1.27
2022-08-08T17:16:51.669Z,0.80
2022-08-08T17:19:29.985Z,1.40
2022-08-08T17:22:01.275Z,0.97
2022-08-08T17:24:30.425Z,1.10
2022-08-08T17:27:02.650Z,0.90
2022-08-08T17:29:36.578Z,0.83
2022-08-08T17:32:12.266Z,1.10
2022-08-08T17:35:04.429Z,1.13
2022-08-08T17:37:32.738Z,1.10
2022-08-08T17:40:12.833Z,1.17
2022-08-08T17:42:47.330Z,1.20
2022-08-08T17:45:23.901Z,1.20
2022-08-08T17:47:56.371Z,0.90
2022-08-08T17:50:25.211Z,1.07
2022-08-08T17:52:54.109Z,1.00
2022-08-08T17:56:04.873Z,1.20
2022-08-08T17:58:18.641Z,1.40
2022-08-08T18:00:57.173Z,1.10
2022-08-08T18:03:25.824Z,1.40
2022-08-08T18:05:56.771Z,1.20
2022-08-08T18:08:41.373Z,1.30
2022-08-08T18:11:15.320Z,0.90
2022-08-08T18:14:01.742Z,1.07
2022-08-08T18:16:33.351Z,1.37
2022-08-08T18:19:02.654Z,1.10
2022-08-08T18:21:58.893Z,1.60
2022-08-08T18:24:24.499Z,1.30
2022-08-08T18:26:56.608Z,1.47
2022-08-08T18:29:33.780Z,1.27
2022-08-08T18:32:08.473Z,1.37
2022-08-08T18:34:37.828Z,1.10
2022-08-08T18:37:06.506Z,1.47
2022-08-08T18:39:42.540Z,1.70
2022-08-08T18:42:16.137Z,1.57
2022-08-08T18:44:55.895Z,1.60
2022-08-08T18:47:27.097Z,1.20
2022-08-08T18:49:58.855Z,1.40
2022-08-08T18:52:34.793Z,0.97
2022-08-08T18:55:10.167Z,1.50
2022-08-08T18:57:45.194Z,1.20
2022-08-08T19:00:22.015Z,1.30
2022-08-08T19:02:57.114Z,0.90
2022-08-08T19:05:34.191Z,1.43
2022-08-08T19:08:24.752Z,1.50
2022-08-08T19:10:59.143Z,1.33
2022-08-08T19:13:53.808Z,1.57
2022-08-08T19:16:28.422Z,1.57
2022-08-08T19:19:02.987Z,1.50
2022-08-08T19:21:33.415Z,1.40
2022-08-08T19:24:05.453Z,1.50
2022-08-08T19:26:34.739Z,1.53
2022-08-08T19:29:04.304Z,1.07
2022-08-08T19:31:35.184Z,1.47
2022-08-08T19:34:36.742Z,1.30
2022-08-08T19:36:55.334Z,1.20
2022-08-08T19:39:34.973Z,1.63
2022-08-08T19:42:04.772Z,1.50
2022-08-08T19:44:45.555Z,1.37
2022-08-08T19:47:23.970Z,1.27
2022-08-08T19:50:00.036Z,1.60
2022-08-08T19:52:35.233Z,1.70
2022-08-08T19:55:11.535Z,1.33
2022-08-08T19:57:43.325Z,1.77
2022-08-08T20:00:30.835Z,1.63
2022-08-08T20:03:15.237Z,1.47
2022-08-08T20:06:16.077Z,1.57
2022-08-08T20:08:48.483Z,2.43
2022-08-08T20:11:17.020Z,1.57
2022-08-08T20:14:32.760Z,2.17
2022-08-08T20:16:40.824Z,1.60
2022-08-08T20:19:12.024Z,1.80
2022-08-08T20:21:42.864Z,1.70
2022-08-08T20:24:17.047Z,1.83
2022-08-08T20:26:47.252Z,1.53
2022-08-08T20:29:45.466Z,1.80
2022-08-08T20:32:15.800Z,1.40
2022-08-08T20:34:53.738Z,1.60
2022-08-08T20:37:22.952Z,1.97
2022-08-08T20:40:07.890Z,1.63
2022-08-08T20:42:37.650Z,1.93
2022-08-08T20:45:06.875Z,1.60
2022-08-08T20:47:39.128Z,1.70
2022-08-08T20:50:13.305Z,1.37
2022-08-08T20:52:44.777Z,1.47
2022-08-08T20:55:25.763Z,1.43
2022-08-08T20:57:57.888Z,2.00
2022-08-08T21:00:39.431Z,1.70
2022-08-08T21:03:09.375Z,1.30
2022-08-08T21:05:58.483Z,1.63
2022-08-08T21:08:36.626Z,1.57
2022-08-08T21:11:17.085Z,1.93
2022-08-08T21:14:07.706Z,1.63
2022-08-08T21:16:35.969Z,2.03
2022-08-08T21:19:16.208Z,1.90
2022-08-08T21:21:52.461Z,1.67
2022-08-08T21:24:30.264Z,2.10
2022-08-08T21:27:05.941Z,1.93
2022-08-08T21:30:05.561Z,1.97
2022-08-08T21:32:37.404Z,1.63
2022-08-08T21:36:14.883Z,2.03
2022-08-08T21:38:03.884Z,1.80
2022-08-08T21:40:37.007Z,1.50
2022-08-08T21:43:07.481Z,1.80
2022-08-08T21:48:01.254Z,1.70
2022-08-08T21:48:41.448Z,2.07
2022-08-08T21:51:13.167Z,2.10
2022-08-08T21:54:35.833Z,1.90
2022-08-08T21:56:43.370Z,2.20
2022-08-08T21:59:15.307Z,1.70
2022-08-08T22:01:43.995Z,2.00
2022-08-08T22:04:21.986Z,2.03
2022-08-08T22:06:55.242Z,2.33
2022-08-08T22:09:26.878Z,2.07
2022-08-08T22:12:09.982Z,2.20
2022-08-08T22:14:50.074Z,1.70
2022-08-08T22:17:20.733Z,2.00
2022-08-08T22:20:13.161Z,1.87
2022-08-08T22:22:40.059Z,1.77
2022-08-08T22:25:12.467Z,1.90
2022-08-08T22:28:02.717Z,1.83
2022-08-08T22:30:42.545Z,1.77
2022-08-08T22:34:10.439Z,1.80
2022-08-08T22:36:05.577Z,2.10
2022-08-08T22:38:47.935Z,2.00
2022-08-08T22:41:21.807Z,2.00
2022-08-08T22:44:02.592Z,2.00
2022-08-08T22:46:34.362Z,1.93
2022-08-08T22:49:09.047Z,2.23
2022-08-08T22:51:42.485Z,2.00
2022-08-08T22:54:31.666Z,2.10
2022-08-08T22:57:08.668Z,2.30
2022-08-08T22:59:50.209Z,2.47
2022-08-08T23:02:29.016Z,2.50
2022-08-08T23:04:58.436Z,2.30
2022-08-08T23:07:51.463Z,2.17
2022-08-08T23:10:19.477Z,2.20
2022-08-08T23:12:51.473Z,2.20
2022-08-08T23:16:41.522Z,2.30
2022-08-08T23:18:11.980Z,2.20
2022-08-08T23:20:40.972Z,2.57
2022-08-08T23:23:11.490Z,2.83
2022-08-08T23:25:48.551Z,2.60
2022-08-08T23:28:19.199Z,2.47
2022-08-08T23:30:48.046Z,2.37
2022-08-08T23:33:21.225Z,2.50
2022-08-08T23:36:09.932Z,2.77
2022-08-08T23:38:41.682Z,2.60
2022-08-08T23:41:22.920Z,2.70
2022-08-08T23:43:56.373Z,2.90
2022-08-08T23:49:02.373Z,2.97
2022-08-08T23:49:18.891Z,2.43
2022-08-08T23:52:05.069Z,2.70
2022-08-08T23:54:53.381Z,2.30
2022-08-08T23:57:39.263Z,2.93
